Time;durP1;ratioP1;P1;durP2;ratioP2;P2;SDS_P1;SDS_P2;PMS_P1;PMS_P2;Temp;Humidity;BMP_temperature;BMP_pressure;BME280_temperature;BME280_humidity;BME280_pressure;Samples;Min_cycle;Max_cycle;Signal;HPM_P1;HPM_P2
2023/04/28 00:00:28;;;;;;;2.30;1.13;;;;;;;;;;5000393;28;20113;-77
2023/04/28 00:02:53;;;;;;;3.20;1.30;;;;;;;;;;5001117;28;20090;-76
2023/04/28 00:05:21;;;;;;;3.10;1.40;;;;;;;;;;5000855;28;20026;-75
2023/04/28 00:07:47;;;;;;;2.85;1.20;;;;;;;;;;4999662;28;20177;-73
2023/04/28 00:10:12;;;;;;;2.42;1.17;;;;;;;;;;4999885;28;20051;-77
2023/04/28 00:12:38;;;;;;;2.70;1.58;;;;;;;;;;5000116;28;20033;-77
2023/04/28 00:15:03;;;;;;;2.08;1.20;;;;;;;;;;4998444;28;20030;-76
2023/04/28 00:17:29;;;;;;;4.43;1.45;;;;;;;;;;4999727;28;20026;-76
2023/04/28 00:19:54;;;;;;;2.40;1.42;;;;;;;;;;4999574;28;20030;-76
2023/04/28 00:22:20;;;;;;;2.63;1.33;;;;;;;;;;4999998;28;20145;-76
2023/04/28 00:24:45;;;;;;;4.05;1.73;;;;;;;;;;5000028;28;20065;-76
2023/04/28 00:27:11;;;;;;;4.85;1.30;;;;;;;;;;4998576;28;20022;-76
2023/04/28 00:29:36;;;;;;;3.67;1.50;;;;;;;;;;4998619;28;20330;-77
2023/04/28 00:32:02;;;;;;;4.07;1.60;;;;;;;;;;4998265;28;20386;-77
2023/04/28 00:34:28;;;;;;;3.20;1.52;;;;;;;;;;4997272;28;20089;-77
2023/04/28 00:36:54;;;;;;;2.58;1.40;;;;;;;;;;4998696;28;20038;-77
2023/04/28 00:39:21;;;;;;;3.55;1.60;;;;;;;;;;4999456;28;20101;-77
2023/04/28 00:41:47;;;;;;;3.05;1.48;;;;;;;;;;4999880;28;20029;-76
2023/04/28 00:44:12;;;;;;;3.38;1.63;;;;;;;;;;4999890;28;20214;-77
2023/04/28 00:46:38;;;;;;;4.18;1.80;;;;;;;;;;5000324;28;20018;-76
2023/04/28 00:49:03;;;;;;;3.75;1.40;;;;;;;;;;4999656;28;20037;-77
2023/04/28 00:51:29;;;;;;;2.35;1.50;;;;;;;;;;4999942;28;20037;-77
2023/04/28 00:53:55;;;;;;;3.33;1.70;;;;;;;;;;4999474;28;20140;-76
2023/04/28 00:56:21;;;;;;;2.13;1.30;;;;;;;;;;4999507;28;20036;-77
2023/04/28 00:58:46;;;;;;;2.67;1.42;;;;;;;;;;4999872;28;20047;-76
2023/04/28 01:01:11;;;;;;;3.97;1.55;;;;;;;;;;4999662;28;20084;-76
2023/04/28 01:03:39;;;;;;;5.22;1.50;;;;;;;;;;4999880;28;20044;-75
2023/04/28 01:06:06;;;;;;;2.33;1.33;;;;;;;;;;4999765;28;20211;-77
2023/04/28 01:08:33;;;;;;;2.95;1.50;;;;;;;;;;4999744;28;20030;-77
2023/04/28 01:10:59;;;;;;;3.97;1.65;;;;;;;;;;4997199;28;20049;-75
2023/04/28 01:13:25;;;;;;;4.18;1.38;;;;;;;;;;5003069;28;20326;-76
2023/04/28 01:15:51;;;;;;;3.85;1.70;;;;;;;;;;5001956;28;20326;-77
2023/04/28 01:18:16;;;;;;;3.50;1.70;;;;;;;;;;5002630;28;20037;-76
2023/04/28 01:20:42;;;;;;;3.65;1.60;;;;;;;;;;5003328;28;20030;-76
2023/04/28 01:23:15;;;;;;;3.28;1.63;;;;;;;;;;5001588;28;20372;-76
2023/04/28 01:25:41;;;;;;;2.40;1.40;;;;;;;;;;5001395;28;20023;-75
2023/04/28 01:28:07;;;;;;;3.47;1.70;;;;;;;;;;5002713;28;20022;-77
2023/04/28 01:30:34;;;;;;;3.95;1.50;;;;;;;;;;5002704;28;20030;-78
2023/04/28 01:33:00;;;;;;;3.60;1.90;;;;;;;;;;4996387;28;20193;-76
2023/04/28 01:35:25;;;;;;;3.17;1.60;;;;;;;;;;4991336;28;20589;-76
2023/04/28 01:37:50;;;;;;;7.93;1.92;;;;;;;;;;5001305;28;20114;-77
2023/04/28 01:40:16;;;;;;;3.72;1.90;;;;;;;;;;5001015;28;20064;-77
2023/04/28 01:42:41;;;;;;;4.50;1.73;;;;;;;;;;4995049;28;20104;-77
2023/04/28 01:45:07;;;;;;;4.50;1.77;;;;;;;;;;4999064;28;20023;-78
2023/04/28 01:47:33;;;;;;;6.63;1.80;;;;;;;;;;4997199;28;20022;-77
2023/04/28 01:49:58;;;;;;;3.80;1.85;;;;;;;;;;5000813;28;20033;-76
2023/04/28 01:52:26;;;;;;;3.67;1.67;;;;;;;;;;4993836;28;20026;-77
2023/04/28 01:54:51;;;;;;;3.70;2.10;;;;;;;;;;4990766;28;20047;-77
2023/04/28 01:57:16;;;;;;;3.92;1.80;;;;;;;;;;4995739;28;20030;-77
2023/04/28 01:59:42;;;;;;;3.40;1.80;;;;;;;;;;4994331;28;20197;-78
2023/04/28 02:02:07;;;;;;;4.28;1.80;;;;;;;;;;4995435;28;20058;-77
2023/04/28 02:04:33;;;;;;;3.15;1.90;;;;;;;;;;4992107;28;20057;-77
2023/04/28 02:06:58;;;;;;;4.88;1.88;;;;;;;;;;4991799;28;20537;-77
2023/04/28 02:09:24;;;;;;;4.95;2.20;;;;;;;;;;4995271;28;20041;-78
2023/04/28 02:11:49;;;;;;;3.40;2.00;;;;;;;;;;4993852;28;20050;-77
2023/04/28 02:14:15;;;;;;;3.08;1.70;;;;;;;;;;4992434;28;20029;-77
2023/04/28 02:16:40;;;;;;;4.95;2.03;;;;;;;;;;4992791;28;20546;-77
2023/04/28 02:19:06;;;;;;;4.18;1.77;;;;;;;;;;4991698;28;20030;-78
2023/04/28 02:21:31;;;;;;;2.85;1.88;;;;;;;;;;4991061;28;20445;-77
2023/04/28 02:23:57;;;;;;;6.53;2.10;;;;;;;;;;4991443;28;20090;-78
2023/04/28 02:26:23;;;;;;;4.13;2.00;;;;;;;;;;4990588;28;20061;-78
2023/04/28 02:28:48;;;;;;;5.30;2.30;;;;;;;;;;5001542;28;20369;-78
2023/04/28 02:31:14;;;;;;;3.72;1.90;;;;;;;;;;5002146;28;20050;-77
2023/04/28 02:33:41;;;;;;;4.88;2.13;;;;;;;;;;5002570;28;20306;-78
2023/04/28 02:36:07;;;;;;;3.92;2.28;;;;;;;;;;5001697;28;20022;-78
2023/04/28 02:38:33;;;;;;;5.38;2.20;;;;;;;;;;4999253;28;20069;-75
2023/04/28 02:41:04;;;;;;;4.28;2.38;;;;;;;;;;4989561;28;20030;-77
2023/04/28 02:43:32;;;;;;;4.97;2.60;;;;;;;;;;4991366;28;20027;-78
2023/04/28 02:45:58;;;;;;;5.22;2.53;;;;;;;;;;4991142;28;20034;-77
2023/04/28 02:48:24;;;;;;;4.05;2.30;;;;;;;;;;4991256;28;20089;-78
2023/04/28 02:50:51;;;;;;;6.35;2.20;;;;;;;;;;4990987;28;20109;-78
2023/04/28 02:53:20;;;;;;;6.25;2.50;;;;;;;;;;4991391;28;20061;-77
2023/04/28 02:55:46;;;;;;;5.53;2.40;;;;;;;;;;4989711;28;20068;-77
2023/04/28 02:58:12;;;;;;;5.53;2.35;;;;;;;;;;4990481;28;20050;-76
2023/04/28 03:00:37;;;;;;;4.07;2.45;;;;;;;;;;4989808;28;20106;-77
2023/04/28 03:03:03;;;;;;;5.95;2.50;;;;;;;;;;4989525;28;20097;-77
2023/04/28 03:05:28;;;;;;;4.85;2.20;;;;;;;;;;4991182;28;20030;-78
2023/04/28 03:07:53;;;;;;;5.72;2.70;;;;;;;;;;4989343;28;20034;-76
2023/04/28 03:10:19;;;;;;;4.70;2.20;;;;;;;;;;4991146;28;20030;-78
2023/04/28 03:12:44;;;;;;;5.30;2.20;;;;;;;;;;4990941;28;20057;-78
2023/04/28 03:15:10;;;;;;;4.50;2.13;;;;;;;;;;4993563;28;20430;-77
2023/04/28 03:17:37;;;;;;;4.97;2.30;;;;;;;;;;4990341;28;20027;-78
2023/04/28 03:20:04;;;;;;;4.60;2.40;;;;;;;;;;4991656;28;20034;-78
2023/04/28 03:22:29;;;;;;;4.15;2.45;;;;;;;;;;4996988;28;20384;-78
2023/04/28 03:24:55;;;;;;;7.07;2.60;;;;;;;;;;5000714;28;20034;-75
2023/04/28 03:27:21;;;;;;;5.03;2.47;;;;;;;;;;4996340;28;20030;-77
2023/04/28 03:29:46;;;;;;;7.65;2.75;;;;;;;;;;5000287;28;20314;-78
2023/04/28 03:32:12;;;;;;;6.13;2.60;;;;;;;;;;4999600;28;20030;-74
2023/04/28 03:34:37;;;;;;;5.70;2.70;;;;;;;;;;4999780;28;20030;-76
2023/04/28 03:37:02;;;;;;;5.90;2.67;;;;;;;;;;5000594;28;20073;-76
2023/04/28 03:39:28;;;;;;;5.43;3.00;;;;;;;;;;4996144;28;20058;-77
2023/04/28 03:41:53;;;;;;;3.80;2.58;;;;;;;;;;4999997;28;20073;-77
2023/04/28 03:44:18;;;;;;;7.00;2.70;;;;;;;;;;5000219;28;20072;-76
2023/04/28 03:46:44;;;;;;;5.82;2.78;;;;;;;;;;5000005;28;20038;-76
2023/04/28 03:49:10;;;;;;;4.10;2.50;;;;;;;;;;5000056;28;20121;-78
2023/04/28 03:51:35;;;;;;;5.72;2.90;;;;;;;;;;5000171;28;20394;-76
2023/04/28 03:54:01;;;;;;;5.82;2.70;;;;;;;;;;5000145;28;20026;-74
2023/04/28 03:56:26;;;;;;;5.78;2.70;;;;;;;;;;5000211;28;20048;-78
2023/04/28 03:58:51;;;;;;;5.18;2.70;;;;;;;;;;5000085;28;20061;-77
2023/04/28 04:01:17;;;;;;;6.25;3.00;;;;;;;;;;5000001;28;20027;-78
2023/04/28 04:03:43;;;;;;;4.00;2.53;;;;;;;;;;4999866;28;20069;-78
2023/04/28 04:06:08;;;;;;;5.50;2.55;;;;;;;;;;4995619;28;20050;-75
2023/04/28 04:08:34;;;;;;;4.75;2.92;;;;;;;;;;4995714;28;20317;-77
2023/04/28 04:10:59;;;;;;;4.32;2.70;;;;;;;;;;4994971;28;20046;-76
2023/04/28 04:13:25;;;;;;;8.27;2.80;;;;;;;;;;4999116;28;20380;-77
2023/04/28 04:15:51;;;;;;;5.20;2.50;;;;;;;;;;5001194;28;20294;-78
2023/04/28 04:18:17;;;;;;;4.88;2.83;;;;;;;;;;5001287;28;20030;-77
2023/04/28 04:20:43;;;;;;;4.78;2.70;;;;;;;;;;4998686;28;20307;-77
2023/04/28 04:23:08;;;;;;;5.13;2.60;;;;;;;;;;4998943;28;20037;-76
2023/04/28 04:25:34;;;;;;;6.28;2.50;;;;;;;;;;4999382;28;20034;-77
2023/04/28 04:28:00;;;;;;;6.38;2.70;;;;;;;;;;4998141;28;20049;-76
2023/04/28 04:30:25;;;;;;;4.38;2.58;;;;;;;;;;4998187;28;20097;-72
2023/04/28 04:32:51;;;;;;;7.50;2.90;;;;;;;;;;4999702;28;20050;-73
2023/04/28 04:35:16;;;;;;;4.30;2.55;;;;;;;;;;4999330;28;20022;-77
2023/04/28 04:37:41;;;;;;;4.20;2.35;;;;;;;;;;4999790;28;20392;-78
2023/04/28 04:40:07;;;;;;;4.18;2.90;;;;;;;;;;5000006;28;20072;-78
2023/04/28 04:42:33;;;;;;;3.88;2.50;;;;;;;;;;4995497;28;20559;-77
2023/04/28 04:44:58;;;;;;;4.07;2.70;;;;;;;;;;4989942;28;20169;-78
2023/04/28 04:47:24;;;;;;;6.10;2.78;;;;;;;;;;4996247;28;20203;-77
2023/04/28 04:49:50;;;;;;;7.28;2.67;;;;;;;;;;4993384;28;20057;-78
2023/04/28 04:52:15;;;;;;;6.03;3.05;;;;;;;;;;4993386;28;20355;-78
2023/04/28 04:54:41;;;;;;;4.47;2.90;;;;;;;;;;4999721;28;20089;-78
2023/04/28 04:57:06;;;;;;;5.82;2.80;;;;;;;;;;5001178;28;20034;-78
2023/04/28 04:59:32;;;;;;;7.22;3.03;;;;;;;;;;5002135;28;20038;-78
2023/04/28 05:01:57;;;;;;;6.35;3.33;;;;;;;;;;5003218;28;20218;-77
2023/04/28 05:04:25;;;;;;;5.22;2.90;;;;;;;;;;4999276;28;20026;-78
2023/04/28 05:06:51;;;;;;;7.03;3.03;;;;;;;;;;4995315;28;20077;-77
2023/04/28 05:09:16;;;;;;;6.32;3.25;;;;;;;;;;4992871;28;20050;-77
2023/04/28 05:11:42;;;;;;;5.95;3.10;;;;;;;;;;4993348;28;20101;-78
2023/04/28 05:14:07;;;;;;;5.72;3.25;;;;;;;;;;4991404;28;20486;-79
2023/04/28 05:16:33;;;;;;;5.00;3.10;;;;;;;;;;4993443;28;20033;-78
2023/04/28 05:18:58;;;;;;;7.38;3.08;;;;;;;;;;4994317;28;20083;-77
2023/04/28 05:21:23;;;;;;;7.07;3.30;;;;;;;;;;4992720;28;20034;-76
2023/04/28 05:23:49;;;;;;;5.63;3.20;;;;;;;;;;4992543;28;20146;-78
2023/04/28 05:26:15;;;;;;;7.35;3.40;;;;;;;;;;4991522;28;20076;-78
2023/04/28 05:28:40;;;;;;;5.03;3.25;;;;;;;;;;4992736;28;20030;-78
2023/04/28 05:31:06;;;;;;;7.22;3.30;;;;;;;;;;4996650;28;20030;-78
2023/04/28 05:33:32;;;;;;;6.97;3.40;;;;;;;;;;5002482;28;20030;-78
2023/04/28 05:35:58;;;;;;;7.57;3.90;;;;;;;;;;5000053;28;20023;-78
2023/04/28 05:38:23;;;;;;;6.07;3.20;;;;;;;;;;5000999;28;20038;-78
2023/04/28 05:40:49;;;;;;;5.43;3.55;;;;;;;;;;5003211;28;20106;-78
2023/04/28 05:43:14;;;;;;;5.65;3.45;;;;;;;;;;5001926;28;20072;-78
2023/04/28 05:45:40;;;;;;;7.32;3.20;;;;;;;;;;5001200;28;20343;-78
2023/04/28 05:48:06;;;;;;;5.25;3.10;;;;;;;;;;5002952;28;20403;-77
2023/04/28 05:50:31;;;;;;;5.70;3.60;;;;;;;;;;5002669;28;20376;-77
2023/04/28 05:52:57;;;;;;;7.75;3.65;;;;;;;;;;5002039;28;20031;-77
2023/04/28 05:55:22;;;;;;;5.88;3.58;;;;;;;;;;5002105;28;20049;-78
2023/04/28 05:57:47;;;;;;;6.13;2.72;;;;;;;;;;4999183;28;20069;-78
2023/04/28 06:00:13;;;;;;;7.63;3.50;;;;;;;;;;4998549;28;20643;-78
2023/04/28 06:02:39;;;;;;;6.13;3.13;;;;;;;;;;5001627;28;20022;-78
2023/04/28 06:05:06;;;;;;;7.03;3.00;;;;;;;;;;5000226;28;20026;-78
2023/04/28 06:07:31;;;;;;;6.47;3.30;;;;;;;;;;5002322;28;20034;-79
2023/04/28 06:09:56;;;;;;;8.50;3.47;;;;;;;;;;5001608;28;20378;-80
2023/04/28 06:12:22;;;;;;;5.97;3.58;;;;;;;;;;5000728;28;20057;-79
2023/04/28 06:14:47;;;;;;;4.78;3.22;;;;;;;;;;5001657;28;20065;-79
2023/04/28 06:17:13;;;;;;;5.53;3.20;;;;;;;;;;5002336;28;20028;-79
2023/04/28 06:19:38;;;;;;;7.43;3.30;;;;;;;;;;5001623;28;20358;-79
2023/04/28 06:22:04;;;;;;;6.20;3.15;;;;;;;;;;5000378;28;20029;-79
2023/04/28 06:24:29;;;;;;;6.53;3.40;;;;;;;;;;5001190;28;20030;-78
2023/04/28 06:26:55;;;;;;;4.72;3.13;;;;;;;;;;5001762;28;20230;-78
2023/04/28 06:29:26;;;;;;;8.27;3.50;;;;;;;;;;5000318;28;20093;-79
2023/04/28 06:31:54;;;;;;;6.90;3.28;;;;;;;;;;4993009;28;20116;-77
2023/04/28 06:34:20;;;;;;;5.90;3.60;;;;;;;;;;4995037;28;20030;-75
2023/04/28 06:36:46;;;;;;;6.85;3.28;;;;;;;;;;4989966;28;20030;-78
2023/04/28 06:39:11;;;;;;;10.48;3.10;;;;;;;;;;4991490;28;20030;-75
2023/04/28 06:41:37;;;;;;;9.13;3.42;;;;;;;;;;4991197;28;20030;-77
2023/04/28 06:44:02;;;;;;;9.02;3.35;;;;;;;;;;4990075;28;20133;-79
2023/04/28 06:46:27;;;;;;;8.95;3.72;;;;;;;;;;4991230;28;20026;-76
2023/04/28 06:48:53;;;;;;;5.80;3.40;;;;;;;;;;4990991;28;20105;-77
2023/04/28 06:51:18;;;;;;;6.82;3.30;;;;;;;;;;4989166;28;20163;-79
2023/04/28 06:53:43;;;;;;;7.80;3.50;;;;;;;;;;4990678;28;20034;-79
2023/04/28 06:56:09;;;;;;;7.97;2.90;;;;;;;;;;4989180;28;20033;-78
2023/04/28 06:58:34;;;;;;;7.30;3.60;;;;;;;;;;4989461;28;20053;-79
2023/04/28 07:01:00;;;;;;;6.50;2.97;;;;;;;;;;4988860;28;20119;-80
2023/04/28 07:03:26;;;;;;;7.97;3.33;;;;;;;;;;4994351;28;20338;-80
2023/04/28 07:05:51;;;;;;;6.00;3.03;;;;;;;;;;4995245;28;20407;-78
2023/04/28 07:08:17;;;;;;;9.98;3.22;;;;;;;;;;4997921;28;20084;-79
2023/04/28 07:10:42;;;;;;;8.85;3.10;;;;;;;;;;4990649;28;20473;-79
2023/04/28 07:13:08;;;;;;;6.20;2.70;;;;;;;;;;4990737;28;20081;-78
2023/04/28 07:15:33;;;;;;;4.47;2.95;;;;;;;;;;4994018;28;20023;-79
2023/04/28 07:17:59;;;;;;;4.72;2.70;;;;;;;;;;4993442;28;20023;-79
2023/04/28 07:20:24;;;;;;;8.02;2.92;;;;;;;;;;4996761;28;20027;-77
2023/04/28 07:22:50;;;;;;;6.05;2.83;;;;;;;;;;4988765;28;20027;-77
2023/04/28 07:25:15;;;;;;;6.25;2.65;;;;;;;;;;4989414;28;20081;-78
2023/04/28 07:27:40;;;;;;;8.35;3.20;;;;;;;;;;4990510;28;20030;-77
2023/04/28 07:30:06;;;;;;;6.70;3.00;;;;;;;;;;4988850;28;20027;-78
2023/04/28 07:32:32;;;;;;;6.50;2.72;;;;;;;;;;4990126;28;20166;-78
2023/04/28 07:34:57;;;;;;;4.82;2.72;;;;;;;;;;4988128;28;20058;-73
2023/04/28 07:37:23;;;;;;;5.70;2.90;;;;;;;;;;4988641;28;20638;-76
2023/04/28 07:39:48;;;;;;;8.88;2.55;;;;;;;;;;4987646;28;20101;-76
2023/04/28 07:42:13;;;;;;;4.65;2.50;;;;;;;;;;4987332;28;20498;-76
2023/04/28 07:44:39;;;;;;;8.10;2.85;;;;;;;;;;4987622;28;20041;-73
2023/04/28 07:47:04;;;;;;;7.50;2.60;;;;;;;;;;4987526;28;20026;-76
2023/04/28 07:49:30;;;;;;;6.13;2.45;;;;;;;;;;4987602;28;20240;-75
2023/04/28 07:51:56;;;;;;;7.18;2.45;;;;;;;;;;4988286;28;20509;-78
2023/04/28 07:54:21;;;;;;;5.88;2.50;;;;;;;;;;4990292;28;20057;-74
2023/04/28 07:56:47;;;;;;;4.68;2.28;;;;;;;;;;4990246;28;20359;-76
2023/04/28 07:59:13;;;;;;;8.07;2.80;;;;;;;;;;4990007;28;20069;-76
2023/04/28 08:01:39;;;;;;;6.07;2.60;;;;;;;;;;4989701;28;20404;-74
2023/04/28 08:04:04;;;;;;;5.53;2.58;;;;;;;;;;4990114;28;20026;-77
2023/04/28 08:06:29;;;;;;;5.90;2.50;;;;;;;;;;4989783;28;20028;-77
2023/04/28 08:08:55;;;;;;;6.90;2.40;;;;;;;;;;4990052;28;20026;-77
2023/04/28 08:11:21;;;;;;;5.28;2.30;;;;;;;;;;4989597;28;20031;-78
2023/04/28 08:13:47;;;;;;;6.70;2.60;;;;;;;;;;4990004;28;20136;-78
2023/04/28 08:16:13;;;;;;;6.32;2.80;;;;;;;;;;4989749;28;20030;-77
2023/04/28 08:18:39;;;;;;;7.55;2.38;;;;;;;;;;4989906;28;20033;-77
2023/04/28 08:21:05;;;;;;;4.80;2.50;;;;;;;;;;4989012;28;20130;-77
2023/04/28 08:23:30;;;;;;;5.90;2.45;;;;;;;;;;4989897;28;20526;-78
2023/04/28 08:25:56;;;;;;;7.90;2.60;;;;;;;;;;4989602;28;20099;-78
2023/04/28 08:28:22;;;;;;;4.07;2.40;;;;;;;;;;4989887;28;20034;-77
2023/04/28 08:30:47;;;;;;;5.28;2.80;;;;;;;;;;4989646;28;20041;-77
2023/04/28 08:33:13;;;;;;;7.55;2.78;;;;;;;;;;4989349;28;20041;-79
2023/04/28 08:35:39;;;;;;;4.60;2.50;;;;;;;;;;4989423;28;20031;-78
2023/04/28 08:38:06;;;;;;;6.60;2.88;;;;;;;;;;4989753;28;20026;-78
2023/04/28 08:40:31;;;;;;;5.28;2.67;;;;;;;;;;4989525;28;20506;-78
2023/04/28 08:42:58;;;;;;;6.63;2.72;;;;;;;;;;4989531;28;20092;-79
2023/04/28 08:45:24;;;;;;;6.15;2.55;;;;;;;;;;4989421;28;20022;-78
2023/04/28 08:47:50;;;;;;;3.88;2.20;;;;;;;;;;4989699;28;20022;-78
2023/04/28 08:50:20;;;;;;;7.07;2.83;;;;;;;;;;4989305;28;20022;-77
2023/04/28 08:52:46;;;;;;;8.98;2.70;;;;;;;;;;4989332;28;20059;-77
2023/04/28 08:55:12;;;;;;;7.70;2.70;;;;;;;;;;4988047;28;20034;-78
2023/04/28 08:58:04;;;;;;;6.30;2.75;;;;;;;;;;4989193;28;20390;-77
2023/04/28 09:00:30;;;;;;;5.43;2.78;;;;;;;;;;4988088;28;20413;-78
2023/04/28 09:02:55;;;;;;;5.03;2.85;;;;;;;;;;4988128;28;20023;-77
2023/04/28 09:05:21;;;;;;;7.60;3.40;;;;;;;;;;4987867;28;20533;-77
2023/04/28 09:07:47;;;;;;;8.13;3.13;;;;;;;;;;4989258;28;20100;-77
2023/04/28 09:10:22;;;;;;;11.20;3.15;;;;;;;;;;4989222;28;20035;-79
2023/04/28 09:12:51;;;;;;;6.22;2.72;;;;;;;;;;4987815;28;20108;-79
2023/04/28 09:15:26;;;;;;;8.80;2.92;;;;;;;;;;4989265;28;20100;-77
2023/04/28 09:17:52;;;;;;;4.63;2.70;;;;;;;;;;4989433;28;20026;-77
2023/04/28 09:20:23;;;;;;;7.70;3.05;;;;;;;;;;4989160;28;20038;-78
2023/04/28 09:22:49;;;;;;;;;;;;;;;;;;4989458;28;20173;-78
2023/04/28 09:25:15;;;;;;;5.53;2.97;;;;;;;;;;4989112;28;20371;-77
2023/04/28 09:27:40;;;;;;;5.07;2.45;;;;;;;;;;4988978;28;20026;-78
2023/04/28 09:30:07;;;;;;;4.72;2.67;;;;;;;;;;4989180;28;20026;-77
2023/04/28 09:32:33;;;;;;;5.15;2.63;;;;;;;;;;4990326;28;20397;-78
2023/04/28 09:34:58;;;;;;;5.32;2.72;;;;;;;;;;4992785;28;20484;-78
2023/04/28 09:37:26;;;;;;;5.15;2.97;;;;;;;;;;4992419;28;20018;-75
2023/04/28 09:39:53;;;;;;;5.00;2.83;;;;;;;;;;4992905;28;20048;-77
2023/04/28 09:42:33;;;;;;;3.83;2.45;;;;;;;;;;4992110;28;20096;-79
2023/04/28 09:45:01;;;;;;;5.78;2.50;;;;;;;;;;4992675;28;20026;-78
2023/04/28 09:47:27;;;;;;;7.40;2.97;;;;;;;;;;4992268;28;20031;-78
2023/04/28 09:49:58;;;;;;;5.97;2.95;;;;;;;;;;4992448;28;20089;-78
2023/04/28 09:52:24;;;;;;;6.75;2.97;;;;;;;;;;4992192;28;20050;-78
2023/04/28 09:54:51;;;;;;;5.50;2.65;;;;;;;;;;4992446;28;20112;-78
2023/04/28 09:57:17;;;;;;;5.38;2.50;;;;;;;;;;4992157;28;20482;-78
2023/04/28 09:59:46;;;;;;;5.75;2.72;;;;;;;;;;4992142;28;20681;-78
2023/04/28 10:02:15;;;;;;;3.70;2.40;;;;;;;;;;4991869;28;20038;-78
2023/04/28 10:04:43;;;;;;;4.45;2.50;;;;;;;;;;4991039;28;20478;-78
2023/04/28 10:07:11;;;;;;;4.22;2.63;;;;;;;;;;4991830;28;20490;-78
2023/04/28 10:09:37;;;;;;;7.43;2.67;;;;;;;;;;4992219;28;20106;-79
2023/04/28 10:12:04;;;;;;;5.22;2.50;;;;;;;;;;4991716;28;20533;-77
2023/04/28 10:14:30;;;;;;;5.85;3.00;;;;;;;;;;4992139;28;20078;-77
2023/04/28 10:16:58;;;;;;;5.93;2.53;;;;;;;;;;4991775;28;20034;-79
2023/04/28 10:19:24;;;;;;;5.15;2.83;;;;;;;;;;4991852;28;20104;-78
2023/04/28 10:22:03;;;;;;;7.32;3.00;;;;;;;;;;4991450;28;20026;-78
2023/04/28 10:24:31;;;;;;;3.70;2.33;;;;;;;;;;4990669;28;20504;-78
2023/04/28 10:27:09;;;;;;;6.50;2.72;;;;;;;;;;4991683;28;20441;-76
2023/04/28 10:29:35;;;;;;;5.88;2.80;;;;;;;;;;4991943;28;20038;-78
2023/04/28 10:32:20;;;;;;;3.97;2.65;;;;;;;;;;4991477;28;20056;-78
2023/04/28 10:34:47;;;;;;;4.18;2.55;;;;;;;;;;4991938;28;20379;-79
2023/04/28 10:37:14;;;;;;;6.93;2.67;;;;;;;;;;4991283;28;20105;-78
2023/04/28 10:40:17;;;;;;;4.68;2.60;;;;;;;;;;4991618;28;20042;-78
2023/04/28 10:42:55;;;;;;;4.80;2.20;;;;;;;;;;4990623;28;20034;-79
2023/04/28 10:45:51;;;;;;;3.67;2.17;;;;;;;;;;4991607;28;20116;-75
2023/04/28 10:48:23;;;;;;;3.50;2.25;;;;;;;;;;4991351;28;20026;-78
2023/04/28 10:51:04;;;;;;;5.40;2.40;;;;;;;;;;4991421;28;20101;-78
2023/04/28 10:53:41;;;;;;;4.95;2.60;;;;;;;;;;4990959;28;20043;-76
2023/04/28 10:56:07;;;;;;;3.92;2.45;;;;;;;;;;4989774;28;20069;-78
2023/04/28 10:58:33;;;;;;;5.15;2.22;;;;;;;;;;4990904;28;20066;-78
2023/04/28 11:01:26;;;;;;;5.90;2.83;;;;;;;;;;4991219;28;20100;-79
2023/04/28 11:04:03;;;;;;;4.63;2.40;;;;;;;;;;4990879;28;20054;-79
2023/04/28 11:06:40;;;;;;;4.03;2.60;;;;;;;;;;4990937;28;20031;-78
2023/04/28 11:09:12;;;;;;;4.93;2.22;;;;;;;;;;4989540;28;20036;-78
2023/04/28 11:11:55;;;;;;;3.90;2.28;;;;;;;;;;4989300;28;20042;-79
2023/04/28 11:14:20;;;;;;;3.28;2.30;;;;;;;;;;4989293;28;20129;-78
2023/04/28 11:17:02;;;;;;;6.18;2.42;;;;;;;;;;4990712;28;20115;-79
2023/04/28 11:19:32;;;;;;;4.25;2.72;;;;;;;;;;4990928;28;20037;-79
2023/04/28 11:21:59;;;;;;;;;;;;;;;;;;4990926;28;20034;-79
2023/04/28 11:24:26;;;;;;;4.22;2.63;;;;;;;;;;4989257;28;19913;-78
2023/04/28 11:26:52;;;;;;;5.35;2.58;;;;;;;;;;4990682;28;20454;-74
2023/04/28 11:29:17;;;;;;;5.57;2.30;;;;;;;;;;4991031;28;20022;-79
2023/04/28 11:31:50;;;;;;;5.78;2.30;;;;;;;;;;4990672;28;20037;-79
2023/04/28 11:34:20;;;;;;;6.20;2.25;;;;;;;;;;4990358;28;20486;-79
2023/04/28 11:36:45;;;;;;;4.93;2.33;;;;;;;;;;4990539;28;20030;-78
2023/04/28 11:39:12;;;;;;;4.70;2.60;;;;;;;;;;4990498;28;20022;-78
2023/04/28 11:41:40;;;;;;;3.38;2.38;;;;;;;;;;4990590;28;20110;-77
2023/04/28 11:44:20;;;;;;;4.82;2.13;;;;;;;;;;4990173;28;20033;-77
2023/04/28 11:46:50;;;;;;;8.90;2.35;;;;;;;;;;4990246;28;20027;-76
2023/04/28 11:49:16;;;;;;;4.07;2.20;;;;;;;;;;4990195;28;20030;-79
2023/04/28 11:51:44;;;;;;;5.47;2.20;;;;;;;;;;4990343;28;20035;-79
2023/04/28 11:54:10;;;;;;;6.03;2.20;;;;;;;;;;4989817;28;20075;-78
2023/04/28 11:56:43;;;;;;;3.28;2.33;;;;;;;;;;4989812;28;20440;-79
2023/04/28 11:59:11;;;;;;;4.25;2.33;;;;;;;;;;4988476;28;20077;-79
2023/04/28 12:01:48;;;;;;;6.43;2.45;;;;;;;;;;4990222;28;20568;-80
2023/04/28 12:04:14;;;;;;;4.68;2.60;;;;;;;;;;4988369;28;20105;-78
2023/04/28 12:06:40;;;;;;;6.30;2.90;;;;;;;;;;4990009;28;20018;-77
2023/04/28 12:09:16;;;;;;;4.32;2.40;;;;;;;;;;4990038;28;20014;-78
2023/04/28 12:11:56;;;;;;;5.25;2.55;;;;;;;;;;4990271;28;20543;-79
2023/04/28 12:14:22;;;;;;;5.43;2.47;;;;;;;;;;4988471;28;20468;-78
2023/04/28 12:16:49;;;;;;;5.40;2.60;;;;;;;;;;4989990;28;20030;-79
2023/04/28 12:19:16;;;;;;;3.90;2.50;;;;;;;;;;4989817;28;20651;-78
2023/04/28 12:21:41;;;;;;;3.67;2.53;;;;;;;;;;4989852;28;20368;-77
2023/04/28 12:24:20;;;;;;;6.80;2.80;;;;;;;;;;4989387;28;20072;-79
2023/04/28 12:26:47;;;;;;;6.38;2.95;;;;;;;;;;4989949;28;20030;-79
2023/04/28 12:29:38;;;;;;;3.65;2.75;;;;;;;;;;4989533;28;20532;-78
2023/04/28 12:32:09;;;;;;;8.23;2.78;;;;;;;;;;4988378;28;20031;-79
2023/04/28 12:34:35;;;;;;;9.45;2.90;;;;;;;;;;4989734;28;20050;-79
2023/04/28 12:37:04;;;;;;;3.80;2.80;;;;;;;;;;4989426;28;20081;-76
2023/04/28 12:39:30;;;;;;;5.25;2.50;;;;;;;;;;4989307;28;20038;-78
2023/04/28 12:41:58;;;;;;;7.07;2.72;;;;;;;;;;4989616;28;20085;-79
2023/04/28 12:44:23;;;;;;;5.00;2.80;;;;;;;;;;4989162;28;20085;-79
2023/04/28 12:46:50;;;;;;;7.88;2.90;;;;;;;;;;4989684;28;20023;-77
2023/04/28 12:49:18;;;;;;;6.78;3.10;;;;;;;;;;4989333;28;20030;-78
2023/04/28 12:51:44;;;;;;;5.40;3.00;;;;;;;;;;4988093;28;20061;-80
2023/04/28 12:54:09;;;;;;;5.80;2.95;;;;;;;;;;4989233;28;20065;-77
2023/04/28 12:56:35;;;;;;;5.65;2.83;;;;;;;;;;4989607;28;20041;-74
2023/04/28 12:59:03;;;;;;;5.80;3.00;;;;;;;;;;4989514;28;20133;-79
2023/04/28 13:01:29;;;;;;;7.78;2.80;;;;;;;;;;4988123;28;20510;-78
2023/04/28 13:03:54;;;;;;;5.97;3.13;;;;;;;;;;4989201;28;20031;-78
2023/04/28 13:06:27;;;;;;;6.90;2.70;;;;;;;;;;4990394;28;20036;-78
2023/04/28 13:09:06;;;;;;;11.05;3.30;;;;;;;;;;4993123;28;20518;-79
2023/04/28 13:11:31;;;;;;;5.65;2.78;;;;;;;;;;4991606;28;20049;-78
2023/04/28 13:13:56;;;;;;;7.95;3.03;;;;;;;;;;4992767;28;20027;-78
2023/04/28 13:16:27;;;;;;;6.40;2.72;;;;;;;;;;4993202;28;20121;-78
2023/04/28 13:18:53;;;;;;;9.70;3.00;;;;;;;;;;4992656;28;20026;-78
2023/04/28 13:21:19;;;;;;;9.93;3.33;;;;;;;;;;4993124;28;20030;-76
2023/04/28 13:23:47;;;;;;;8.77;3.30;;;;;;;;;;4991205;28;20018;-79
2023/04/28 13:26:12;;;;;;;7.00;3.15;;;;;;;;;;4991565;28;20756;-79
2023/04/28 13:28:37;;;;;;;9.70;3.38;;;;;;;;;;4992744;28;20027;-77
2023/04/28 13:31:03;;;;;;;8.38;3.47;;;;;;;;;;4992705;28;20026;-76
2023/04/28 13:33:30;;;;;;;7.25;3.28;;;;;;;;;;4992591;28;20038;-76
2023/04/28 13:35:58;;;;;;;8.57;3.25;;;;;;;;;;4992475;28;20037;-74
2023/04/28 13:38:25;;;;;;;12.75;3.42;;;;;;;;;;4992493;28;20533;-73
2023/04/28 13:40:51;;;;;;;9.93;3.35;;;;;;;;;;4992684;28;20027;-74
2023/04/28 13:43:16;;;;;;;7.28;3.45;;;;;;;;;;4992357;28;20022;-78
2023/04/28 13:45:41;;;;;;;9.05;3.10;;;;;;;;;;4992365;28;20613;-75
2023/04/28 13:48:07;;;;;;;9.18;3.40;;;;;;;;;;4990965;28;20488;-78
2023/04/28 13:50:33;;;;;;;7.60;3.00;;;;;;;;;;4990784;28;20030;-78
2023/04/28 13:52:58;;;;;;;6.60;3.17;;;;;;;;;;4991374;28;20026;-79
2023/04/28 13:55:27;;;;;;;9.73;3.05;;;;;;;;;;4992046;28;20028;-78
2023/04/28 13:57:53;;;;;;;9.10;3.05;;;;;;;;;;4992114;28;20055;-78
2023/04/28 14:00:19;;;;;;;8.60;3.40;;;;;;;;;;4991983;28;20030;-77
2023/04/28 14:02:45;;;;;;;9.13;3.30;;;;;;;;;;4991050;28;20041;-78
2023/04/28 14:05:11;;;;;;;6.30;3.10;;;;;;;;;;4991995;28;20034;-77
2023/04/28 14:07:36;;;;;;;9.23;3.30;;;;;;;;;;4992037;28;20032;-78
2023/04/28 14:10:03;;;;;;;5.97;3.10;;;;;;;;;;4990231;28;20409;-76
2023/04/28 14:12:29;;;;;;;8.02;3.17;;;;;;;;;;4992061;28;20026;-73
2023/04/28 14:14:54;;;;;;;6.28;2.70;;;;;;;;;;4990137;28;20491;-78
2023/04/28 14:17:20;;;;;;;7.22;2.90;;;;;;;;;;4991881;28;20033;-79
2023/04/28 14:19:45;;;;;;;6.10;2.83;;;;;;;;;;4991249;28;20057;-78
2023/04/28 14:22:11;;;;;;;8.07;2.80;;;;;;;;;;4990427;28;20023;-77
2023/04/28 14:24:36;;;;;;;6.68;2.65;;;;;;;;;;4991487;28;20481;-77
2023/04/28 14:27:02;;;;;;;7.78;2.78;;;;;;;;;;4991775;28;20145;-77
2023/04/28 14:29:27;;;;;;;10.20;2.70;;;;;;;;;;4991248;28;20026;-76
2023/04/28 14:31:52;;;;;;;5.85;2.33;;;;;;;;;;4991584;28;20034;-79
2023/04/28 14:34:18;;;;;;;10.13;2.72;;;;;;;;;;4991358;28;20106;-78
2023/04/28 14:36:43;;;;;;;7.80;2.50;;;;;;;;;;4991615;28;20027;-78
2023/04/28 14:39:09;;;;;;;5.78;2.47;;;;;;;;;;4990055;28;20034;-76
2023/04/28 14:41:34;;;;;;;8.88;2.33;;;;;;;;;;4990220;28;20105;-78